sensor_id;sensor_type;location;lat;lon;timestamp;P1;durP1;ratioP1;P2;durP2;ratioP2
9720;SDS011;4899;42.644;23.366;2023-12-20T00:00:51;27.60;;;20.20;;
9720;SDS011;4899;42.644;23.366;2023-12-20T00:03:17;28.83;;;19.67;;
9720;SDS011;4899;42.644;23.366;2023-12-20T00:05:42;23.70;;;15.63;;
9720;SDS011;4899;42.644;23.366;2023-12-20T00:08:07;22.60;;;16.37;;
9720;SDS011;4899;42.644;23.366;2023-12-20T00:10:33;25.63;;;18.83;;
9720;SDS011;4899;42.644;23.366;2023-12-20T00:12:58;37.07;;;26.37;;
9720;SDS011;4899;42.644;23.366;2023-12-20T00:15:23;35.27;;;26.63;;
9720;SDS011;4899;42.644;23.366;2023-12-20T00:17:49;29.53;;;23.30;;
9720;SDS011;4899;42.644;23.366;2023-12-20T00:20:14;38.50;;;28.37;;
9720;SDS011;4899;42.644;23.366;2023-12-20T00:22:39;48.97;;;35.33;;
9720;SDS011;4899;42.644;23.366;2023-12-20T00:25:05;51.20;;;35.97;;
9720;SDS011;4899;42.644;23.366;2023-12-20T00:27:30;51.10;;;34.67;;
9720;SDS011;4899;42.644;23.366;2023-12-20T00:29:55;43.43;;;30.70;;
9720;SDS011;4899;42.644;23.366;2023-12-20T00:32:21;41.37;;;29.70;;
9720;SDS011;4899;42.644;23.366;2023-12-20T00:34:46;33.20;;;23.50;;
9720;SDS011;4899;42.644;23.366;2023-12-20T00:37:11;28.37;;;21.50;;
9720;SDS011;4899;42.644;23.366;2023-12-20T00:39:36;33.33;;;22.77;;
9720;SDS011;4899;42.644;23.366;2023-12-20T00:42:02;39.10;;;27.90;;
9720;SDS011;4899;42.644;23.366;2023-12-20T00:44:27;38.90;;;26.47;;
9720;SDS011;4899;42.644;23.366;2023-12-20T00:46:52;36.87;;;26.17;;
9720;SDS011;4899;42.644;23.366;2023-12-20T00:49:18;35.33;;;26.70;;
9720;SDS011;4899;42.644;23.366;2023-12-20T00:51:43;32.80;;;24.23;;
9720;SDS011;4899;42.644;23.366;2023-12-20T00:54:08;31.00;;;24.03;;
9720;SDS011;4899;42.644;23.366;2023-12-20T00:56:34;32.17;;;24.07;;
9720;SDS011;4899;42.644;23.366;2023-12-20T00:58:59;31.00;;;22.13;;
9720;SDS011;4899;42.644;23.366;2023-12-20T01:01:25;29.13;;;20.70;;
9720;SDS011;4899;42.644;23.366;2023-12-20T01:03:50;27.17;;;20.03;;
9720;SDS011;4899;42.644;23.366;2023-12-20T01:06:16;29.90;;;21.47;;
9720;SDS011;4899;42.644;23.366;2023-12-20T01:08:41;27.80;;;20.43;;
9720;SDS011;4899;42.644;23.366;2023-12-20T01:11:07;26.23;;;18.80;;
9720;SDS011;4899;42.644;23.366;2023-12-20T01:13:32;26.60;;;18.90;;
9720;SDS011;4899;42.644;23.366;2023-12-20T01:15:57;27.10;;;19.73;;
9720;SDS011;4899;42.644;23.366;2023-12-20T01:18:23;26.47;;;18.43;;
9720;SDS011;4899;42.644;23.366;2023-12-20T01:20:48;25.43;;;17.03;;
9720;SDS011;4899;42.644;23.366;2023-12-20T01:23:13;17.10;;;13.50;;
9720;SDS011;4899;42.644;23.366;2023-12-20T01:25:39;19.43;;;14.80;;
9720;SDS011;4899;42.644;23.366;2023-12-20T01:28:04;18.80;;;13.33;;
9720;SDS011;4899;42.644;23.366;2023-12-20T01:30:29;20.43;;;15.07;;
9720;SDS011;4899;42.644;23.366;2023-12-20T01:32:55;17.03;;;13.80;;
9720;SDS011;4899;42.644;23.366;2023-12-20T01:35:20;14.43;;;11.20;;
9720;SDS011;4899;42.644;23.366;2023-12-20T01:37:45;16.00;;;11.07;;
9720;SDS011;4899;42.644;23.366;2023-12-20T01:40:11;15.17;;;10.73;;
9720;SDS011;4899;42.644;23.366;2023-12-20T01:42:36;15.77;;;11.50;;
9720;SDS011;4899;42.644;23.366;2023-12-20T01:45:01;13.73;;;9.97;;
9720;SDS011;4899;42.644;23.366;2023-12-20T01:47:27;12.07;;;8.97;;
9720;SDS011;4899;42.644;23.366;2023-12-20T01:49:53;12.53;;;9.33;;
9720;SDS011;4899;42.644;23.366;2023-12-20T01:52:19;11.03;;;8.27;;
9720;SDS011;4899;42.644;23.366;2023-12-20T01:54:44;10.17;;;7.87;;
9720;SDS011;4899;42.644;23.366;2023-12-20T01:57:10;17.23;;;12.17;;
9720;SDS011;4899;42.644;23.366;2023-12-20T01:59:35;15.10;;;10.80;;
9720;SDS011;4899;42.644;23.366;2023-12-20T02:02:02;14.97;;;10.37;;
9720;SDS011;4899;42.644;23.366;2023-12-20T02:04:28;13.47;;;9.60;;
9720;SDS011;4899;42.644;23.366;2023-12-20T02:06:53;14.40;;;10.87;;
9720;SDS011;4899;42.644;23.366;2023-12-20T02:09:19;14.80;;;11.57;;
9720;SDS011;4899;42.644;23.366;2023-12-20T02:11:44;16.03;;;10.77;;
9720;SDS011;4899;42.644;23.366;2023-12-20T02:14:09;14.03;;;10.30;;
9720;SDS011;4899;42.644;23.366;2023-12-20T02:16:35;16.53;;;10.53;;
9720;SDS011;4899;42.644;23.366;2023-12-20T02:19:00;14.97;;;9.50;;
9720;SDS011;4899;42.644;23.366;2023-12-20T02:21:31;14.40;;;9.07;;
9720;SDS011;4899;42.644;23.366;2023-12-20T02:23:56;12.43;;;8.40;;
9720;SDS011;4899;42.644;23.366;2023-12-20T02:26:22;13.07;;;8.37;;
9720;SDS011;4899;42.644;23.366;2023-12-20T02:28:47;16.13;;;10.93;;
9720;SDS011;4899;42.644;23.366;2023-12-20T02:31:12;18.93;;;11.40;;
9720;SDS011;4899;42.644;23.366;2023-12-20T02:33:38;13.33;;;9.10;;
9720;SDS011;4899;42.644;23.366;2023-12-20T02:36:04;12.33;;;8.90;;
9720;SDS011;4899;42.644;23.366;2023-12-20T02:38:31;14.73;;;9.23;;
9720;SDS011;4899;42.644;23.366;2023-12-20T02:40:56;11.93;;;8.90;;
9720;SDS011;4899;42.644;23.366;2023-12-20T02:43:21;12.13;;;7.87;;
9720;SDS011;4899;42.644;23.366;2023-12-20T02:45:47;10.67;;;8.63;;
9720;SDS011;4899;42.644;23.366;2023-12-20T02:48:12;23.30;;;11.70;;
9720;SDS011;4899;42.644;23.366;2023-12-20T02:50:37;15.23;;;10.60;;
9720;SDS011;4899;42.644;23.366;2023-12-20T02:53:03;17.77;;;12.10;;
9720;SDS011;4899;42.644;23.366;2023-12-20T02:55:28;16.93;;;11.63;;
9720;SDS011;4899;42.644;23.366;2023-12-20T02:57:53;14.60;;;9.73;;
9720;SDS011;4899;42.644;23.366;2023-12-20T03:00:19;20.97;;;12.83;;
9720;SDS011;4899;42.644;23.366;2023-12-20T03:02:44;30.83;;;22.93;;
9720;SDS011;4899;42.644;23.366;2023-12-20T03:05:09;35.30;;;22.97;;
9720;SDS011;4899;42.644;23.366;2023-12-20T03:07:36;21.40;;;14.87;;
9720;SDS011;4899;42.644;23.366;2023-12-20T03:10:01;23.93;;;15.50;;
9720;SDS011;4899;42.644;23.366;2023-12-20T03:12:27;21.83;;;14.87;;
9720;SDS011;4899;42.644;23.366;2023-12-20T03:14:52;23.00;;;15.80;;
9720;SDS011;4899;42.644;23.366;2023-12-20T03:17:17;34.63;;;25.40;;
9720;SDS011;4899;42.644;23.366;2023-12-20T03:19:43;44.30;;;29.97;;
9720;SDS011;4899;42.644;23.366;2023-12-20T03:22:09;38.43;;;26.70;;
9720;SDS011;4899;42.644;23.366;2023-12-20T03:24:34;32.60;;;23.67;;
9720;SDS011;4899;42.644;23.366;2023-12-20T03:26:59;30.13;;;20.77;;
9720;SDS011;4899;42.644;23.366;2023-12-20T03:29:25;29.60;;;21.17;;
9720;SDS011;4899;42.644;23.366;2023-12-20T03:31:50;28.57;;;18.57;;
9720;SDS011;4899;42.644;23.366;2023-12-20T03:34:15;28.60;;;22.07;;
9720;SDS011;4899;42.644;23.366;2023-12-20T03:36:41;25.77;;;18.67;;
9720;SDS011;4899;42.644;23.366;2023-12-20T03:39:06;37.57;;;24.93;;
9720;SDS011;4899;42.644;23.366;2023-12-20T03:41:31;33.97;;;22.47;;
9720;SDS011;4899;42.644;23.366;2023-12-20T03:43:56;29.93;;;20.80;;
9720;SDS011;4899;42.644;23.366;2023-12-20T03:46:22;38.53;;;22.13;;
9720;SDS011;4899;42.644;23.366;2023-12-20T03:48:47;32.67;;;22.77;;
9720;SDS011;4899;42.644;23.366;2023-12-20T03:51:12;36.77;;;22.33;;
9720;SDS011;4899;42.644;23.366;2023-12-20T03:53:38;33.30;;;22.50;;
9720;SDS011;4899;42.644;23.366;2023-12-20T03:56:04;26.53;;;19.43;;
9720;SDS011;4899;42.644;23.366;2023-12-20T03:58:30;28.17;;;20.80;;
9720;SDS011;4899;42.644;23.366;2023-12-20T04:00:55;26.70;;;17.90;;
9720;SDS011;4899;42.644;23.366;2023-12-20T04:03:20;31.23;;;18.80;;
9720;SDS011;4899;42.644;23.366;2023-12-20T04:05:46;19.70;;;15.33;;
9720;SDS011;4899;42.644;23.366;2023-12-20T04:08:11;26.33;;;19.07;;
9720;SDS011;4899;42.644;23.366;2023-12-20T04:10:36;27.40;;;19.60;;
9720;SDS011;4899;42.644;23.366;2023-12-20T04:13:02;26.77;;;18.67;;
9720;SDS011;4899;42.644;23.366;2023-12-20T04:15:28;25.93;;;17.83;;
9720;SDS011;4899;42.644;23.366;2023-12-20T04:17:53;26.97;;;18.27;;
9720;SDS011;4899;42.644;23.366;2023-12-20T04:20:18;25.00;;;17.90;;
9720;SDS011;4899;42.644;23.366;2023-12-20T04:22:44;23.70;;;16.23;;
9720;SDS011;4899;42.644;23.366;2023-12-20T04:25:09;30.97;;;19.60;;
9720;SDS011;4899;42.644;23.366;2023-12-20T04:27:34;32.00;;;21.10;;
9720;SDS011;4899;42.644;23.366;2023-12-20T04:30:00;26.10;;;17.67;;
9720;SDS011;4899;42.644;23.366;2023-12-20T04:32:25;24.27;;;16.27;;
9720;SDS011;4899;42.644;23.366;2023-12-20T04:34:50;23.17;;;16.33;;
9720;SDS011;4899;42.644;23.366;2023-12-20T04:37:16;22.37;;;15.70;;
9720;SDS011;4899;42.644;23.366;2023-12-20T04:39:41;21.43;;;15.20;;
9720;SDS011;4899;42.644;23.366;2023-12-20T04:42:07;20.90;;;15.13;;
9720;SDS011;4899;42.644;23.366;2023-12-20T04:44:33;23.80;;;17.93;;
9720;SDS011;4899;42.644;23.366;2023-12-20T04:46:58;31.33;;;20.17;;
9720;SDS011;4899;42.644;23.366;2023-12-20T04:49:23;25.27;;;17.83;;
9720;SDS011;4899;42.644;23.366;2023-12-20T04:51:49;31.97;;;21.03;;
9720;SDS011;4899;42.644;23.366;2023-12-20T04:54:14;32.03;;;20.73;;
9720;SDS011;4899;42.644;23.366;2023-12-20T04:56:39;28.20;;;19.00;;
9720;SDS011;4899;42.644;23.366;2023-12-20T04:59:04;28.80;;;20.73;;
9720;SDS011;4899;42.644;23.366;2023-12-20T05:01:30;30.83;;;21.03;;
9720;SDS011;4899;42.644;23.366;2023-12-20T05:03:56;36.00;;;24.10;;
9720;SDS011;4899;42.644;23.366;2023-12-20T05:06:21;37.03;;;23.53;;
9720;SDS011;4899;42.644;23.366;2023-12-20T05:08:46;39.87;;;26.10;;
9720;SDS011;4899;42.644;23.366;2023-12-20T05:11:12;35.67;;;23.20;;
9720;SDS011;4899;42.644;23.366;2023-12-20T05:13:39;100.30;;;57.53;;
9720;SDS011;4899;42.644;23.366;2023-12-20T05:16:04;61.23;;;40.23;;
9720;SDS011;4899;42.644;23.366;2023-12-20T05:18:30;88.27;;;52.10;;
9720;SDS011;4899;42.644;23.366;2023-12-20T05:20:55;69.87;;;42.80;;
9720;SDS011;4899;42.644;23.366;2023-12-20T05:23:20;65.40;;;43.20;;
9720;SDS011;4899;42.644;23.366;2023-12-20T05:25:46;62.57;;;41.03;;
9720;SDS011;4899;42.644;23.366;2023-12-20T05:28:11;71.70;;;46.93;;
9720;SDS011;4899;42.644;23.366;2023-12-20T05:30:36;62.80;;;39.40;;
9720;SDS011;4899;42.644;23.366;2023-12-20T05:33:02;52.93;;;34.23;;
9720;SDS011;4899;42.644;23.366;2023-12-20T05:35:27;146.80;;;59.70;;
9720;SDS011;4899;42.644;23.366;2023-12-20T05:37:52;84.97;;;52.73;;
9720;SDS011;4899;42.644;23.366;2023-12-20T05:40:18;133.83;;;59.10;;
9720;SDS011;4899;42.644;23.366;2023-12-20T05:42:43;272.07;;;67.90;;
9720;SDS011;4899;42.644;23.366;2023-12-20T05:45:09;350.87;;;79.33;;
9720;SDS011;4899;42.644;23.366;2023-12-20T05:47:34;182.30;;;69.23;;
9720;SDS011;4899;42.644;23.366;2023-12-20T05:49:59;192.80;;;68.40;;
9720;SDS011;4899;42.644;23.366;2023-12-20T05:52:25;139.97;;;64.87;;
9720;SDS011;4899;42.644;23.366;2023-12-20T05:54:50;151.43;;;68.40;;
9720;SDS011;4899;42.644;23.366;2023-12-20T05:57:15;404.07;;;79.60;;
9720;SDS011;4899;42.644;23.366;2023-12-20T05:59:41;145.90;;;63.97;;
9720;SDS011;4899;42.644;23.366;2023-12-20T06:02:06;108.53;;;56.83;;
9720;SDS011;4899;42.644;23.366;2023-12-20T06:04:31;123.97;;;59.27;;
9720;SDS011;4899;42.644;23.366;2023-12-20T06:06:57;128.60;;;62.40;;
9720;SDS011;4899;42.644;23.366;2023-12-20T06:09:22;143.10;;;60.00;;
9720;SDS011;4899;42.644;23.366;2023-12-20T06:11:48;131.67;;;56.73;;
9720;SDS011;4899;42.644;23.366;2023-12-20T06:14:13;181.37;;;60.37;;
9720;SDS011;4899;42.644;23.366;2023-12-20T06:16:38;153.20;;;61.83;;
9720;SDS011;4899;42.644;23.366;2023-12-20T06:19:03;120.10;;;59.77;;
9720;SDS011;4899;42.644;23.366;2023-12-20T06:21:29;382.70;;;84.10;;
9720;SDS011;4899;42.644;23.366;2023-12-20T06:23:54;206.03;;;69.03;;
9720;SDS011;4899;42.644;23.366;2023-12-20T06:26:20;152.07;;;65.00;;
9720;SDS011;4899;42.644;23.366;2023-12-20T06:28:45;276.20;;;75.13;;
9720;SDS011;4899;42.644;23.366;2023-12-20T06:31:10;137.63;;;62.00;;
9720;SDS011;4899;42.644;23.366;2023-12-20T06:33:36;224.37;;;70.40;;
9720;SDS011;4899;42.644;23.366;2023-12-20T06:36:01;111.77;;;55.87;;
9720;SDS011;4899;42.644;23.366;2023-12-20T06:38:26;221.63;;;56.90;;
9720;SDS011;4899;42.644;23.366;2023-12-20T06:40:52;123.03;;;57.87;;
9720;SDS011;4899;42.644;23.366;2023-12-20T06:43:17;104.23;;;55.80;;
9720;SDS011;4899;42.644;23.366;2023-12-20T06:45:42;145.13;;;56.87;;
9720;SDS011;4899;42.644;23.366;2023-12-20T06:48:08;111.03;;;52.97;;
9720;SDS011;4899;42.644;23.366;2023-12-20T06:50:33;150.47;;;53.87;;
9720;SDS011;4899;42.644;23.366;2023-12-20T06:52:59;348.30;;;75.87;;
9720;SDS011;4899;42.644;23.366;2023-12-20T06:55:24;162.57;;;62.17;;
9720;SDS011;4899;42.644;23.366;2023-12-20T06:57:50;112.27;;;50.23;;
9720;SDS011;4899;42.644;23.366;2023-12-20T07:00:15;120.17;;;52.20;;
9720;SDS011;4899;42.644;23.366;2023-12-20T07:02:41;90.33;;;47.90;;
9720;SDS011;4899;42.644;23.366;2023-12-20T07:05:06;86.83;;;51.40;;
9720;SDS011;4899;42.644;23.366;2023-12-20T07:07:31;88.60;;;49.70;;
9720;SDS011;4899;42.644;23.366;2023-12-20T07:09:57;74.37;;;46.53;;
9720;SDS011;4899;42.644;23.366;2023-12-20T07:12:22;76.43;;;50.20;;
9720;SDS011;4899;42.644;23.366;2023-12-20T07:14:47;207.30;;;133.57;;
9720;SDS011;4899;42.644;23.366;2023-12-20T07:17:13;147.77;;;96.70;;
9720;SDS011;4899;42.644;23.366;2023-12-20T07:19:40;98.33;;;60.27;;
9720;SDS011;4899;42.644;23.366;2023-12-20T07:22:06;96.87;;;60.70;;
9720;SDS011;4899;42.644;23.366;2023-12-20T07:24:32;88.50;;;58.33;;
9720;SDS011;4899;42.644;23.366;2023-12-20T07:26:57;75.47;;;48.50;;
9720;SDS011;4899;42.644;23.366;2023-12-20T07:29:22;72.87;;;44.20;;
9720;SDS011;4899;42.644;23.366;2023-12-20T07:31:48;51.90;;;33.57;;
9720;SDS011;4899;42.644;23.366;2023-12-20T07:34:13;62.27;;;36.77;;
9720;SDS011;4899;42.644;23.366;2023-12-20T07:36:38;57.97;;;37.53;;
9720;SDS011;4899;42.644;23.366;2023-12-20T07:39:03;44.37;;;29.37;;
9720;SDS011;4899;42.644;23.366;2023-12-20T07:41:29;55.10;;;35.70;;
9720;SDS011;4899;42.644;23.366;2023-12-20T07:43:54;43.30;;;26.90;;
9720;SDS011;4899;42.644;23.366;2023-12-20T07:46:21;52.63;;;33.23;;
9720;SDS011;4899;42.644;23.366;2023-12-20T07:48:49;55.00;;;36.23;;
9720;SDS011;4899;42.644;23.366;2023-12-20T07:51:14;66.23;;;42.20;;
9720;SDS011;4899;42.644;23.366;2023-12-20T07:53:40;78.53;;;50.10;;
9720;SDS011;4899;42.644;23.366;2023-12-20T07:56:26;82.90;;;48.37;;
9720;SDS011;4899;42.644;23.366;2023-12-20T07:58:51;77.60;;;47.97;;
9720;SDS011;4899;42.644;23.366;2023-12-20T08:01:16;80.27;;;49.97;;
9720;SDS011;4899;42.644;23.366;2023-12-20T08:03:43;72.00;;;48.80;;
9720;SDS011;4899;42.644;23.366;2023-12-20T08:06:08;73.07;;;47.80;;
9720;SDS011;4899;42.644;23.366;2023-12-20T08:08:33;72.60;;;45.87;;
9720;SDS011;4899;42.644;23.366;2023-12-20T08:10:59;66.77;;;44.33;;
9720;SDS011;4899;42.644;23.366;2023-12-20T08:13:25;65.13;;;41.63;;
9720;SDS011;4899;42.644;23.366;2023-12-20T08:15:51;57.30;;;38.27;;
9720;SDS011;4899;42.644;23.366;2023-12-20T08:18:16;68.80;;;45.57;;
9720;SDS011;4899;42.644;23.366;2023-12-20T08:20:42;59.30;;;41.03;;
9720;SDS011;4899;42.644;23.366;2023-12-20T08:23:07;60.10;;;37.40;;
9720;SDS011;4899;42.644;23.366;2023-12-20T08:25:32;63.33;;;40.40;;
9720;SDS011;4899;42.644;23.366;2023-12-20T08:27:58;66.93;;;40.73;;
9720;SDS011;4899;42.644;23.366;2023-12-20T08:30:23;64.97;;;43.93;;
9720;SDS011;4899;42.644;23.366;2023-12-20T08:32:48;62.40;;;41.37;;
9720;SDS011;4899;42.644;23.366;2023-12-20T08:35:13;57.50;;;38.03;;
9720;SDS011;4899;42.644;23.366;2023-12-20T08:37:39;59.97;;;37.73;;
9720;SDS011;4899;42.644;23.366;2023-12-20T08:40:04;60.90;;;37.63;;
9720;SDS011;4899;42.644;23.366;2023-12-20T08:42:30;61.67;;;36.63;;
9720;SDS011;4899;42.644;23.366;2023-12-20T08:44:59;62.70;;;35.93;;
9720;SDS011;4899;42.644;23.366;2023-12-20T08:47:24;67.93;;;40.93;;
9720;SDS011;4899;42.644;23.366;2023-12-20T08:49:50;72.67;;;41.57;;
9720;SDS011;4899;42.644;23.366;2023-12-20T08:52:15;73.40;;;41.67;;
9720;SDS011;4899;42.644;23.366;2023-12-20T08:54:40;68.63;;;40.73;;
9720;SDS011;4899;42.644;23.366;2023-12-20T08:57:06;70.70;;;41.10;;
9720;SDS011;4899;42.644;23.366;2023-12-20T08:59:32;76.87;;;42.27;;
9720;SDS011;4899;42.644;23.366;2023-12-20T09:01:57;75.80;;;45.00;;
9720;SDS011;4899;42.644;23.366;2023-12-20T09:04:22;77.17;;;42.37;;
9720;SDS011;4899;42.644;23.366;2023-12-20T09:06:48;71.07;;;42.03;;
9720;SDS011;4899;42.644;23.366;2023-12-20T09:09:13;67.17;;;40.70;;
9720;SDS011;4899;42.644;23.366;2023-12-20T09:11:39;71.17;;;41.67;;
9720;SDS011;4899;42.644;23.366;2023-12-20T09:14:05;75.00;;;43.63;;
9720;SDS011;4899;42.644;23.366;2023-12-20T09:16:30;71.90;;;41.80;;
9720;SDS011;4899;42.644;23.366;2023-12-20T09:18:56;75.03;;;44.50;;
9720;SDS011;4899;42.644;23.366;2023-12-20T09:21:22;79.53;;;45.80;;
9720;SDS011;4899;42.644;23.366;2023-12-20T09:23:47;74.97;;;43.10;;
9720;SDS011;4899;42.644;23.366;2023-12-20T09:26:12;77.70;;;42.33;;
9720;SDS011;4899;42.644;23.366;2023-12-20T09:28:38;77.70;;;43.23;;
9720;SDS011;4899;42.644;23.366;2023-12-20T09:31:05;74.77;;;43.57;;
9720;SDS011;4899;42.644;23.366;2023-12-20T09:33:30;74.43;;;43.33;;
9720;SDS011;4899;42.644;23.366;2023-12-20T09:35:56;65.17;;;41.10;;
9720;SDS011;4899;42.644;23.366;2023-12-20T09:38:21;64.37;;;37.37;;
9720;SDS011;4899;42.644;23.366;2023-12-20T09:40:47;56.93;;;35.13;;
9720;SDS011;4899;42.644;23.366;2023-12-20T09:43:15;59.87;;;37.30;;
9720;SDS011;4899;42.644;23.366;2023-12-20T09:45:46;54.63;;;34.77;;
9720;SDS011;4899;42.644;23.366;2023-12-20T09:48:12;54.00;;;33.50;;
9720;SDS011;4899;42.644;23.366;2023-12-20T09:50:39;58.70;;;36.50;;
9720;SDS011;4899;42.644;23.366;2023-12-20T09:53:05;58.13;;;36.27;;
9720;SDS011;4899;42.644;23.366;2023-12-20T09:55:34;56.97;;;37.00;;
9720;SDS011;4899;42.644;23.366;2023-12-20T09:58:00;64.23;;;39.77;;
9720;SDS011;4899;42.644;23.366;2023-12-20T10:00:26;62.97;;;39.60;;
9720;SDS011;4899;42.644;23.366;2023-12-20T10:05:18;59.67;;;39.07;;
9720;SDS011;4899;42.644;23.366;2023-12-20T10:07:46;60.70;;;39.97;;
9720;SDS011;4899;42.644;23.366;2023-12-20T10:10:12;63.37;;;41.00;;
9720;SDS011;4899;42.644;23.366;2023-12-20T10:12:38;54.90;;;38.93;;
9720;SDS011;4899;42.644;23.366;2023-12-20T10:15:03;61.47;;;39.30;;
9720;SDS011;4899;42.644;23.366;2023-12-20T10:17:29;62.43;;;40.23;;
9720;SDS011;4899;42.644;23.366;2023-12-20T10:19:54;57.07;;;39.73;;
9720;SDS011;4899;42.644;23.366;2023-12-20T10:22:19;65.80;;;41.63;;
9720;SDS011;4899;42.644;23.366;2023-12-20T10:24:45;62.27;;;40.10;;
9720;SDS011;4899;42.644;23.366;2023-12-20T10:27:11;61.10;;;41.67;;
9720;SDS011;4899;42.644;23.366;2023-12-20T10:29:37;63.97;;;41.07;;
9720;SDS011;4899;42.644;23.366;2023-12-20T10:32:25;64.43;;;41.83;;
9720;SDS011;4899;42.644;23.366;2023-12-20T10:34:54;62.10;;;41.07;;
9720;SDS011;4899;42.644;23.366;2023-12-20T10:37:20;59.63;;;39.67;;
9720;SDS011;4899;42.644;23.366;2023-12-20T10:39:49;58.83;;;40.20;;
9720;SDS011;4899;42.644;23.366;2023-12-20T10:42:15;60.07;;;40.67;;
9720;SDS011;4899;42.644;23.366;2023-12-20T10:44:41;60.37;;;40.63;;
9720;SDS011;4899;42.644;23.366;2023-12-20T10:47:06;64.33;;;41.47;;
9720;SDS011;4899;42.644;23.366;2023-12-20T10:49:31;60.63;;;40.97;;
9720;SDS011;4899;42.644;23.366;2023-12-20T10:51:58;70.33;;;41.77;;
9720;SDS011;4899;42.644;23.366;2023-12-20T10:54:25;66.17;;;41.23;;
9720;SDS011;4899;42.644;23.366;2023-12-20T10:56:50;62.17;;;42.80;;
9720;SDS011;4899;42.644;23.366;2023-12-20T10:59:17;61.80;;;41.13;;
9720;SDS011;4899;42.644;23.366;2023-12-20T11:01:44;63.03;;;40.50;;
9720;SDS011;4899;42.644;23.366;2023-12-20T11:04:10;59.10;;;40.63;;
9720;SDS011;4899;42.644;23.366;2023-12-20T11:11:41;57.90;;;40.93;;
9720;SDS011;4899;42.644;23.366;2023-12-20T11:14:11;54.90;;;39.17;;
9720;SDS011;4899;42.644;23.366;2023-12-20T11:16:40;61.20;;;41.27;;
9720;SDS011;4899;42.644;23.366;2023-12-20T11:19:06;55.67;;;38.73;;
9720;SDS011;4899;42.644;23.366;2023-12-20T11:21:31;56.80;;;39.97;;
9720;SDS011;4899;42.644;23.366;2023-12-20T11:23:57;61.30;;;40.33;;
9720;SDS011;4899;42.644;23.366;2023-12-20T11:26:22;65.93;;;42.33;;
9720;SDS011;4899;42.644;23.366;2023-12-20T11:28:51;67.90;;;44.13;;
9720;SDS011;4899;42.644;23.366;2023-12-20T11:31:17;67.90;;;44.20;;
9720;SDS011;4899;42.644;23.366;2023-12-20T11:33:42;67.83;;;43.50;;
9720;SDS011;4899;42.644;23.366;2023-12-20T11:36:16;64.87;;;41.03;;
9720;SDS011;4899;42.644;23.366;2023-12-20T11:38:56;66.90;;;43.23;;
9720;SDS011;4899;42.644;23.366;2023-12-20T11:41:22;56.80;;;39.63;;
9720;SDS011;4899;42.644;23.366;2023-12-20T11:43:48;64.20;;;42.27;;
9720;SDS011;4899;42.644;23.366;2023-12-20T11:46:13;65.57;;;44.10;;
9720;SDS011;4899;42.644;23.366;2023-12-20T11:48:38;65.07;;;44.10;;
9720;SDS011;4899;42.644;23.366;2023-12-20T11:51:11;58.07;;;40.63;;
9720;SDS011;4899;42.644;23.366;2023-12-20T11:53:37;57.27;;;41.57;;
9720;SDS011;4899;42.644;23.366;2023-12-20T11:56:03;61.77;;;41.47;;
9720;SDS011;4899;42.644;23.366;2023-12-20T11:58:28;56.80;;;41.13;;
9720;SDS011;4899;42.644;23.366;2023-12-20T12:00:54;57.67;;;41.87;;
9720;SDS011;4899;42.644;23.366;2023-12-20T12:03:20;60.80;;;43.70;;
9720;SDS011;4899;42.644;23.366;2023-12-20T12:05:46;56.43;;;41.20;;
9720;SDS011;4899;42.644;23.366;2023-12-20T12:08:12;46.60;;;37.83;;
9720;SDS011;4899;42.644;23.366;2023-12-20T12:10:38;48.80;;;37.20;;
9720;SDS011;4899;42.644;23.366;2023-12-20T12:13:03;51.03;;;38.37;;
9720;SDS011;4899;42.644;23.366;2023-12-20T12:15:29;47.27;;;37.37;;
9720;SDS011;4899;42.644;23.366;2023-12-20T12:17:54;51.27;;;39.23;;
9720;SDS011;4899;42.644;23.366;2023-12-20T12:20:21;47.33;;;36.53;;
9720;SDS011;4899;42.644;23.366;2023-12-20T12:22:46;46.20;;;36.43;;
9720;SDS011;4899;42.644;23.366;2023-12-20T12:25:22;52.07;;;40.07;;
9720;SDS011;4899;42.644;23.366;2023-12-20T12:27:47;51.73;;;40.17;;
9720;SDS011;4899;42.644;23.366;2023-12-20T12:30:12;54.50;;;40.40;;
9720;SDS011;4899;42.644;23.366;2023-12-20T12:32:38;47.23;;;36.93;;
9720;SDS011;4899;42.644;23.366;2023-12-20T12:35:04;48.47;;;37.77;;
9720;SDS011;4899;42.644;23.366;2023-12-20T12:37:31;44.13;;;35.43;;
9720;SDS011;4899;42.644;23.366;2023-12-20T12:39:58;42.00;;;33.40;;
9720;SDS011;4899;42.644;23.366;2023-12-20T12:42:23;43.13;;;33.67;;
9720;SDS011;4899;42.644;23.366;2023-12-20T12:44:53;42.23;;;34.23;;
9720;SDS011;4899;42.644;23.366;2023-12-20T12:47:19;42.83;;;33.50;;
9720;SDS011;4899;42.644;23.366;2023-12-20T12:49:44;40.57;;;32.40;;
9720;SDS011;4899;42.644;23.366;2023-12-20T12:52:09;39.57;;;32.43;;
9720;SDS011;4899;42.644;23.366;2023-12-20T12:54:34;41.83;;;32.33;;
9720;SDS011;4899;42.644;23.366;2023-12-20T12:57:00;45.07;;;34.97;;
9720;SDS011;4899;42.644;23.366;2023-12-20T12:59:25;39.70;;;33.13;;
9720;SDS011;4899;42.644;23.366;2023-12-20T13:01:51;36.13;;;29.87;;
9720;SDS011;4899;42.644;23.366;2023-12-20T13:04:16;38.97;;;32.53;;
9720;SDS011;4899;42.644;23.366;2023-12-20T13:06:41;46.07;;;36.20;;
9720;SDS011;4899;42.644;23.366;2023-12-20T13:09:07;46.63;;;37.00;;
9720;SDS011;4899;42.644;23.366;2023-12-20T13:11:34;50.60;;;37.73;;
9720;SDS011;4899;42.644;23.366;2023-12-20T13:13:59;47.30;;;37.10;;
9720;SDS011;4899;42.644;23.366;2023-12-20T13:16:25;53.30;;;39.43;;
9720;SDS011;4899;42.644;23.366;2023-12-20T13:18:50;52.97;;;39.10;;
9720;SDS011;4899;42.644;23.366;2023-12-20T13:21:16;48.60;;;37.03;;
9720;SDS011;4899;42.644;23.366;2023-12-20T13:23:42;46.83;;;35.27;;
9720;SDS011;4899;42.644;23.366;2023-12-20T13:26:07;45.63;;;34.67;;
9720;SDS011;4899;42.644;23.366;2023-12-20T13:28:32;50.03;;;37.37;;
9720;SDS011;4899;42.644;23.366;2023-12-20T13:30:58;51.77;;;39.33;;
9720;SDS011;4899;42.644;23.366;2023-12-20T13:33:23;47.83;;;37.03;;
9720;SDS011;4899;42.644;23.366;2023-12-20T13:35:51;51.40;;;36.60;;
9720;SDS011;4899;42.644;23.366;2023-12-20T13:38:17;51.00;;;37.03;;
9720;SDS011;4899;42.644;23.366;2023-12-20T13:40:42;51.57;;;37.63;;
9720;SDS011;4899;42.644;23.366;2023-12-20T13:43:08;53.00;;;38.83;;
9720;SDS011;4899;42.644;23.366;2023-12-20T13:45:33;59.60;;;41.23;;
9720;SDS011;4899;42.644;23.366;2023-12-20T13:47:58;59.37;;;42.73;;
9720;SDS011;4899;42.644;23.366;2023-12-20T13:50:24;58.57;;;41.43;;
9720;SDS011;4899;42.644;23.366;2023-12-20T13:52:49;61.20;;;43.00;;
9720;SDS011;4899;42.644;23.366;2023-12-20T13:55:15;62.47;;;40.80;;
9720;SDS011;4899;42.644;23.366;2023-12-20T13:57:40;62.07;;;44.40;;
9720;SDS011;4899;42.644;23.366;2023-12-20T14:00:06;76.47;;;48.63;;
9720;SDS011;4899;42.644;23.366;2023-12-20T14:02:38;68.73;;;46.63;;
9720;SDS011;4899;42.644;23.366;2023-12-20T14:05:03;73.53;;;47.27;;
9720;SDS011;4899;42.644;23.366;2023-12-20T14:07:28;72.13;;;48.03;;
9720;SDS011;4899;42.644;23.366;2023-12-20T14:09:54;74.17;;;46.27;;
9720;SDS011;4899;42.644;23.366;2023-12-20T14:12:19;77.97;;;47.50;;
9720;SDS011;4899;42.644;23.366;2023-12-20T14:14:45;82.50;;;48.53;;
9720;SDS011;4899;42.644;23.366;2023-12-20T14:17:10;75.57;;;46.67;;
9720;SDS011;4899;42.644;23.366;2023-12-20T14:19:36;78.60;;;47.57;;
9720;SDS011;4899;42.644;23.366;2023-12-20T14:22:01;78.33;;;48.70;;
9720;SDS011;4899;42.644;23.366;2023-12-20T14:24:28;83.50;;;49.30;;
9720;SDS011;4899;42.644;23.366;2023-12-20T14:26:53;80.53;;;47.27;;
9720;SDS011;4899;42.644;23.366;2023-12-20T14:29:19;86.57;;;48.80;;
9720;SDS011;4899;42.644;23.366;2023-12-20T14:31:44;78.93;;;46.43;;